Current Conditions
Clear
Conditions



Pressure
1020.92 (hPa) - 30.15 (inHG)
Visibility

0.0 (km) - 0.0 (miles)
   Temperature
18  °C
64°F
4  °C
Dewpoint
40  %
 Humidity
   Wind Speed
13  km/h
7  kts
8  mph
3.6  m/s
   Wind Direction
 40°
North East
   Airport Data
LSMM
Location Meiringen 6 km (3.73 mi)
Metar :LSMM 101820Z AUTO 04007KT 010V070 9999NDV NCD 18/04 Q1021 RMK
Fri 10th April 20:20 pm
   Raw Metar Info
Raw METAR is the most common format in the world for the transmission of observational weather data. It is highly standardized through the International Civil Aviation Organization (ICAO), which allows it to be understood throughout most of the world.
   API Info
Data Provided by
https://www.checkwx.com/weather/LSMM
   © Info
CSS/SVG/PHP scripts were developed by weather34.com for use in the weather34 template © 2015-2020

Guide Info provided by Metar-Wikipedia